Flight Track Log - Related Links

Times and Time Zones

All times are in EDT time to prevent confusion due to time zone crossing. See the N137TK flight status page for this flight to view local times or setup timezone preferences in your user account.

Time Position Orientation Groundspeed Altitude Reporting Facility
EDT Latitude Longitude Course Direction KTS MPH feet Rate Location/Type
Thu 01:10:41 PM 36.1608 -93.9611 131° Southeast 176 203 8,600  Level Memphis Center
Thu 01:11:41 PM 36.1331 -93.9111 125° Southeast 182 209 10,400 1,800 Climbing Memphis Center
Thu 01:12:00 PM 36.0450 -93.7837 129° Southeast  Level Estimated
Thu 01:12:41 PM 36.1056 -93.8533 120° Southeast 187 215 12,200  Level Memphis Center
Thu 01:13:00 PM 35.9948 -93.7114 129° Southeast  Level Estimated
Thu 01:13:41 PM 36.0736 -93.7956 124° Southeast 192 221 13,700  Level Memphis Center
Thu 01:14:00 PM 35.9445 -93.6392 136° Southeast  Level Estimated
Thu 01:14:41 PM 36.0461 -93.7378 120° Southeast 192 221 15,100  Level Memphis Center
Thu 01:15:00 PM 35.8936 -93.5678 131° Southeast  Level FlightAware Approximate
Thu 01:15:41 PM 36.0144 -93.6775 123° Southeast 197 227 16,400  Level Memphis Center
Thu 01:16:42 PM 35.9847 -93.6175 121° Southeast 197 227 17,800 1,250 Climbing Memphis Center
Thu 01:17:41 PM 35.9550 -93.5597 122° Southeast 197 227 18,900 1,150 Climbing Memphis Center
Thu 01:18:42 PM 35.9253 -93.4997 121° Southeast 197 227 20,100 1,200 Climbing Memphis Center
Thu 01:19:41 PM 35.8933 -93.4394 123° Southeast 203 234 21,300 1,100 Climbing Memphis Center
Thu 01:20:42 PM 35.8633 -93.3819 123° Southeast 203 234 22,300 1,000 Climbing Memphis Center
Thu 01:21:41 PM 35.8317 -93.3219 123° Southeast 203 234 23,300 1,008 Climbing Memphis Center
Thu 01:22:41 PM 35.8017 -93.2594 121° Southeast 203 234 24,300 950 Climbing Memphis Center
Thu 01:23:41 PM 35.7697 -93.1994 123° Southeast 203 234 25,200 800 Climbing Memphis Center
Thu 01:24:41 PM 35.7417 -93.1450 122° Southeast 203 234 25,900 750 Climbing Memphis Center
Thu 01:25:41 PM 35.7097 -93.0825 122° Southeast 203 234 26,700 545 Climbing Memphis Center
Thu 01:26:42 PM 35.6736 -93.0172 124° Southeast 216 249 27,000 149 Climbing Memphis Center
Thu 01:27:42 PM 35.6317 -92.9369 123° Southeast 232 267 27,000  Level Memphis Center
Thu 01:28:41 PM 35.5892 -92.8614 125° Southeast 259 298 27,000  Level Memphis Center
Thu 01:29:42 PM 35.5450 -92.7811 124° Southeast 283 326 27,000  Level Memphis Center
Thu 01:30:42 PM 35.5050 -92.6933 119° Southeast 311 358 27,000  Level Memphis Center
Thu 01:31:41 PM 35.4586 -92.6053 123° Southeast 311 358 27,000  Level Memphis Center
Thu 01:32:41 PM 35.4122 -92.5200 124° Southeast 305 351 27,000  Level Memphis Center
Thu 01:33:41 PM 35.3678 -92.4347 123° Southeast 305 351 27,000  Level Memphis Center
Thu 01:34:42 PM 35.3211 -92.3497 124° Southeast 305 351 27,000  Level Memphis Center
Thu 01:35:42 PM 35.2744 -92.2644 124° Southeast 305 351 27,000  Level Memphis Center
Thu 01:36:42 PM 35.2297 -92.1797 123° Southeast 305 351 27,000  Level Memphis Center
Thu 01:37:41 PM 35.1831 -92.0922 123° Southeast 305 351 27,000  Level Memphis Center
Thu 01:38:41 PM 35.1383 -92.0100 124° Southeast 305 351 27,000  Level Memphis Center
Thu 01:39:41 PM 35.0936 -91.9231 122° Southeast 310 357 27,000  Level Memphis Center
Thu 01:40:42 PM 35.0444 -91.8383 125° Southeast 310 357 27,000  Level Memphis Center
Thu 01:41:42 PM 34.9997 -91.7539 123° Southeast 310 357 27,000  Level Memphis Center
Thu 01:42:41 PM 34.9525 -91.6669 124° Southeast 310 357 27,000  Level Memphis Center
Thu 01:43:41 PM 34.9053 -91.5853 125° Southeast 310 357 27,000  Level Memphis Center
Thu 01:44:41 PM 34.8561 -91.4933 123° Southeast 310 357 27,000  Level Memphis Center
Thu 01:45:41 PM 34.8172 -91.4194 123° Southeast 305 351 27,000  Level Memphis Center
Thu 01:46:42 PM 34.7678 -91.3331 125° Southeast 311 358 27,000  Level Memphis Center
Thu 01:47:42 PM 34.7225 -91.2492 123° Southeast 311 358 27,000  Level Memphis Center
Thu 01:48:41 PM 34.6750 -91.1653 125° Southeast 306 352 27,000  Level Memphis Center
Thu 01:49:41 PM 34.6297 -91.0789 122° Southeast 306 352 27,000  Level Memphis Center
Thu 01:50:42 PM 34.5800 -90.9953 126° Southeast 306 352 27,000  Level Memphis Center
Thu 01:51:42 PM 34.5347 -90.9092 123° Southeast 312 359 27,000  Level Memphis Center
Thu 01:52:41 PM 34.4808 -90.8183 126° Southeast 312 359 27,000  Level Memphis Center
Thu 01:53:41 PM 34.4350 -90.7347 124° Southeast 312 359 27,000  Level Memphis Center
Thu 01:54:41 PM 34.3872 -90.6492 124° Southeast 312 359 27,000  Level Memphis Center
Thu 01:55:41 PM 34.3394 -90.5658 125° Southeast 312 359 27,000  Level Memphis Center
Thu 01:56:42 PM 34.2917 -90.4803 124° Southeast 307 353 27,000  Level Memphis Center
Thu 01:57:42 PM 34.2436 -90.3972 125° Southeast 307 353 27,000  Level Memphis Center
Thu 01:58:41 PM 34.1978 -90.3119 123° Southeast 307 353 27,000  Level Memphis Center
Thu 01:59:42 PM 34.1497 -90.2267 124° Southeast 312 359 27,000  Level Memphis Center
Thu 02:00:41 PM 34.0994 -90.1439 126° Southeast 312 359 27,000  Level Memphis Center
Thu 02:01:41 PM 34.0533 -90.0589 123° Southeast 312 359 27,000  Level Memphis Center
Thu 02:02:41 PM 34.0031 -89.9764 126° Southeast 312 359 27,000  Level Memphis Center
Thu 02:03:41 PM 33.9569 -89.8889 122° Southeast 312 359 27,000  Level Memphis Center
Thu 02:04:41 PM 33.9106 -89.8142 127° Southeast 312 359 27,000  Level Memphis Center
Thu 02:05:42 PM 33.8622 -89.7267 124° Southeast 312 359 27,000  Level Memphis Center
Thu 02:06:42 PM 33.8117 -89.6347 123° Southeast 312 359 27,000  Level Memphis Center
Thu 02:07:41 PM 33.7714 -89.5600 123° Southeast 307 353 27,000  Level Memphis Center
Thu 02:08:42 PM 33.7208 -89.4756 126° Southeast 312 359 27,000  Level Memphis Center
Thu 02:09:41 PM 33.6722 -89.3911 125° Southeast 312 359 27,000  Level Memphis Center
Thu 02:10:41 PM 33.6236 -89.3069 125° Southeast 312 359 27,000  Level Memphis Center
Thu 02:11:41 PM 33.5747 -89.2228 125° Southeast 312 359 27,000  Level Memphis Center
Thu 02:12:41 PM 33.5239 -89.1361 125° Southeast 312 359 27,000  Level Memphis Center
Thu 02:13:41 PM 33.4750 -89.0522 125° Southeast 312 359 27,000  Level Memphis Center
Thu 02:14:41 PM 33.4239 -88.9658 125° Southeast 312 359 27,000  Level Memphis Center
Thu 02:15:41 PM 33.3750 -88.8819 125° Southeast 312 359 27,000  Level Memphis Center
Thu 02:16:41 PM 33.3217 -88.7958 127° Southeast 312 359 27,000  Level Memphis Center
Thu 02:17:41 PM 33.2725 -88.7122 125° Southeast 312 359 27,000  Level Memphis Center
Thu 02:18:42 PM 33.2233 -88.6264 124° Southeast 312 359 27,000  Level Memphis Center
Thu 02:19:41 PM 33.1722 -88.5406 125° Southeast 312 359 27,000  Level Memphis Center
Thu 02:20:42 PM 33.1208 -88.4572 126° Southeast 312 359 27,000  Level Memphis Center
Thu 02:21:41 PM 33.0714 -88.3717 125° Southeast 312 359 27,000  Level Memphis Center
Thu 02:23:41 PM 32.9644 -88.1933 126° Southeast 317 365 27,000  Level Atlanta Center
Thu 02:24:41 PM 32.9131 -88.1092 126° Southeast 317 365 27,000  Level Atlanta Center
Thu 02:25:41 PM 32.8614 -88.0250 126° Southeast 317 365 27,000  Level Atlanta Center
Thu 02:26:41 PM 32.8139 -87.9439 125° Southeast 317 365 27,000  Level Atlanta Center
Thu 02:27:41 PM 32.7644 -87.8578 124° Southeast 317 365 27,000  Level Atlanta Center
Thu 02:28:41 PM 32.7128 -87.7764 127° Southeast 317 365 27,000  Level Atlanta Center
Thu 02:29:41 PM 32.6611 -87.6928 126° Southeast 317 365 27,000  Level Atlanta Center
Thu 02:30:41 PM 32.6111 -87.6119 126° Southeast 317 365 27,000  Level Atlanta Center
Thu 02:31:41 PM 32.5614 -87.5286 125° Southeast 317 365 27,000  Level Atlanta Center
Thu 02:32:41 PM 32.5136 -87.4431 123° Southeast 317 365 27,000  Level Atlanta Center
Thu 02:33:41 PM 32.4697 -87.3747 127° Southeast 306 352 27,000  Level Atlanta Center
Thu 02:34:41 PM 32.4117 -87.2792 126° Southeast 312 359 27,000  Level Atlanta Center
Thu 02:35:41 PM 32.3594 -87.1961 127° Southeast 312 359 27,000  Level Atlanta Center
Thu 02:36:41 PM 32.3075 -87.1131 126° Southeast 312 359 27,000  Level Atlanta Center
Thu 02:37:41 PM 32.2594 -87.0303 124° Southeast 312 359 27,000  Level Atlanta Center
Thu 02:38:41 PM 32.2050 -86.9500 129° Southeast 312 359 27,000  Level Atlanta Center
Thu 02:39:41 PM 32.1544 -86.8700 127° Southeast 312 359 27,000  Level Atlanta Center
Thu 02:41:50 PM 32.0486 -86.7014 126° Southeast 300 345 27,000  Level Jacksonville Center
Thu 02:42:50 PM 31.9908 -86.6108 127° Southeast 309 356 27,000  Level Jacksonville Center
Thu 02:43:50 PM 31.9411 -86.5281 125° Southeast 309 356 27,000  Level Jacksonville Center
Thu 02:44:50 PM 31.8892 -86.4453 126° Southeast 309 356 27,000  Level Jacksonville Center
Thu 02:45:50 PM 31.8372 -86.3650 127° Southeast 309 356 27,000  Level Jacksonville Center
Thu 02:46:50 PM 31.7872 -86.2850 126° Southeast 309 356 27,000  Level Jacksonville Center
Thu 02:47:50 PM 31.7331 -86.2000 127° Southeast 309 356 27,000  Level Jacksonville Center
Thu 02:48:50 PM 31.6828 -86.1200 126° Southeast 309 356 27,000  Level Jacksonville Center
Thu 02:49:50 PM 31.6306 -86.0400 127° Southeast 309 356 27,000  Level Jacksonville Center
Thu 02:50:50 PM 31.5803 -85.9581 126° Southeast 309 356 27,000  Level Jacksonville Center
Thu 02:51:50 PM 31.5300 -85.8783 126° Southeast 309 356 27,000  Level Jacksonville Center
Thu 02:52:50 PM 31.4778 -85.7986 128° Southeast 309 356 27,000  Level Jacksonville Center
Thu 02:53:50 PM 31.4233 -85.7142 127° Southeast 309 356 27,000  Level Jacksonville Center
Thu 02:54:50 PM 31.3728 -85.6325 126° Southeast 309 356 27,000  Level Jacksonville Center
Thu 02:55:50 PM 31.3244 -85.5556 126° Southeast 309 356 27,000  Level Jacksonville Center
Thu 02:56:50 PM 31.2739 -85.4739 126° Southeast 304 350 27,000  Level Jacksonville Center
Thu 02:57:50 PM 31.2192 -85.3947 129° Southeast 304 350 27,000  Level Jacksonville Center
Thu 02:58:50 PM 31.1683 -85.3108 125° Southeast 304 350 27,000  Level Jacksonville Center
Thu 02:59:50 PM 31.1114 -85.2317 130° Southeast 310 357 27,000  Level Jacksonville Center
Thu 03:00:50 PM 31.0542 -85.1697 137° Southeast 310 357 27,000  Level Jacksonville Center
Thu 03:01:50 PM 30.9864 -85.1003 139° Southeast 310 357 27,000  Level Jacksonville Center
Thu 03:02:50 PM 30.9208 -85.0308 138° Southeast 316 364 27,000  Level Jacksonville Center
Thu 03:03:50 PM 30.8553 -84.9617 138° Southeast 321 369 27,000  Level Jacksonville Center
Thu 03:04:50 PM 30.7894 -84.8925 138° Southeast 321 369 27,000  Level Jacksonville Center
Thu 03:05:50 PM 30.7217 -84.8233 139° Southeast 321 369 27,000  Level Jacksonville Center
Thu 03:06:50 PM 30.6558 -84.7569 139° Southeast 321 369 27,000  Level Jacksonville Center
Thu 03:07:50 PM 30.5900 -84.6856 137° Southeast 321 369 27,000  Level Jacksonville Center
Thu 03:08:50 PM 30.5242 -84.6169 138° Southeast 321 369 27,000  Level Jacksonville Center
Thu 03:09:50 PM 30.4583 -84.5506 139° Southeast 326 375 27,000  Level Jacksonville Center
Thu 03:10:50 PM 30.3922 -84.4819 138° Southeast 326 375 27,000  Level Jacksonville Center
Thu 03:11:50 PM 30.3264 -84.4158 139° Southeast 326 375 27,000  Level Jacksonville Center
Thu 03:12:50 PM 30.2583 -84.3450 138° Southeast 326 375 27,000  Level Jacksonville Center
Thu 03:13:50 PM 30.1942 -84.2792 138° Southeast 326 375 27,000  Level Jacksonville Center
Thu 03:14:50 PM 30.1281 -84.2086 137° Southeast 326 375 27,000  Level Jacksonville Center
Thu 03:15:50 PM 30.0619 -84.1431 139° Southeast 326 375 27,000  Level Jacksonville Center
Thu 03:16:50 PM 29.9981 -84.0750 137° Southeast 321 369 27,000  Level Jacksonville Center
Thu 03:17:50 PM 29.9297 -84.0094 140° Southeast 321 369 27,000  Level Jacksonville Center
Thu 03:18:50 PM 29.8633 -83.9392 137° Southeast 321 369 27,000  Level Jacksonville Center
Thu 03:19:50 PM 29.7950 -83.8786 142° Southeast 321 369 27,000  Level Jacksonville Center
Thu 03:20:50 PM 29.7161 -83.8300 152° Southeast 321 369 27,000  Level Jacksonville Center
Thu 03:21:50 PM 29.6372 -83.7792 151° Southeast 316 364 27,000  Level Jacksonville Center
Thu 03:22:50 PM 29.5603 -83.7283 150° Southeast 316 364 27,000  Level Jacksonville Center
Thu 03:23:50 PM 29.4833 -83.6800 151° Southeast 316 364 27,000  Level Jacksonville Center
Thu 03:24:50 PM 29.4042 -83.6317 152° Southeast 321 369 27,000  Level Jacksonville Center
Thu 03:25:50 PM 29.3189 -83.5739 149° Southeast 321 369 27,000  Level Jacksonville Center
Thu 03:26:50 PM 29.2419 -83.5256 151° Southeast 321 369 27,000  Level Jacksonville Center
Thu 03:27:50 PM 29.1650 -83.4753 150° Southeast 321 369 27,000  Level Jacksonville Center
Thu 03:28:50 PM 29.0881 -83.4272 151° Southeast 321 369 27,000  Level Jacksonville Center
Thu 03:29:50 PM 29.0089 -83.3769 151° Southeast 326 375 27,000  Level Jacksonville Center
Thu 03:30:50 PM 28.9339 -83.3292 151° Southeast 326 375 27,000  Level Jacksonville Center
Thu 03:31:51 PM 28.8569 -83.2789 150° Southeast 326 375 27,000  Level Jacksonville Center
Thu 03:32:50 PM 28.7797 -83.2289 150° Southeast 326 375 27,000  Level Jacksonville Center
Thu 03:33:50 PM 28.7047 -83.1814 151° Southeast 321 369 27,000  Level Jacksonville Center
Thu 03:34:50 PM 28.6275 -83.1314 150° Southeast 321 369 27,000  Level Jacksonville Center
Thu 03:35:50 PM 28.5483 -83.0839 152° Southeast 321 369 27,000  Level Jacksonville Center
Thu 03:36:50 PM 28.4733 -83.0389 152° Southeast 315 362 27,000  Level Jacksonville Center
Thu 03:37:50 PM 28.4067 -82.9964 151° Southeast 315 362 27,000  Level Jacksonville Center
Thu 03:40:08 PM 28.2264 -82.8833 151° Southeast 305 351 27,000  Level Miami Center
Thu 03:41:08 PM 28.1511 -82.8369 151° Southeast 305 351 27,000  Level Miami Center
Thu 03:42:08 PM 28.0778 -82.7931 152° Southeast 305 351 27,000  Level Miami Center
Thu 03:43:08 PM 28.0008 -82.7419 150° Southeast 310 357 27,000  Level Miami Center
Thu 03:44:08 PM 27.9275 -82.6981 152° Southeast 310 357 27,000 -350 Level Miami Center
Thu 03:45:08 PM 27.8492 -82.6708 163° South 298 343 26,300 -850 Descending Miami Center
Thu 03:46:08 PM 27.7606 -82.6475 167° South 306 352 25,300 -1,000 Descending Miami Center
Thu 03:47:08 PM 27.6756 -82.6292 169° South 334 384 24,300 -1,000 Descending Miami Center
Thu 03:48:08 PM 27.5889 -82.6058 167° South 334 384 23,300 -1,050 Descending Miami Center
Thu 03:49:08 PM 27.4878 -82.5822 168° South 334 384 22,200 -1,050 Descending Miami Center
Thu 03:50:08 PM 27.3967 -82.5614 169° South 339 390 21,200 -950 Descending Miami Center
Thu 03:51:08 PM 27.3039 -82.5356 166° South 334 384 20,300 -909 Descending Miami Center
Thu 03:52:20 PM 27.2272 -82.5178 168° South 327 376 19,200 -1,045 Descending Miami Center
Thu 03:53:20 PM 27.1197 -82.4917 168° South 322 371 18,000 -1,100 Descending Miami Center
Thu 03:54:20 PM 27.0372 -82.4714 168° South 316 364 17,000 -1,050 Descending Miami Center
Thu 03:55:20 PM 26.9628 -82.4539 168° South 310 357 15,900 -1,150 Descending Miami Center
Thu 03:56:20 PM 26.8781 -82.4333 168° South 310 357 14,700 -1,200 Descending Miami Center
Thu 03:57:20 PM 26.7911 -82.4131 168° South 310 357 13,500 -1,100 Descending Miami Center
Thu 03:58:20 PM 26.7103 -82.3928 167° South 300 345 12,500 -1,000 Descending Miami Center
Thu 03:59:20 PM 26.6339 -82.3753 168° South 294 338 11,500 -1,000 Descending Miami Center
Thu 04:00:20 PM 26.5669 -82.3258 147° Southeast 294 338 10,500 -1,000 Descending Miami Center
Thu 04:01:20 PM 26.5131 -82.2561 131° Southeast 289 333 9,500 -950 Descending Miami Center
Thu 04:02:20 PM 26.4633 -82.1889 130° Southeast 284 327 8,600 -900 Descending Miami Center
Thu 04:04:00 PM 26.3859 -82.0653 124° Southeast  Level FlightAware Approximate
Thu 04:11:00 PM 26.1524 -81.7756 130° Southeast  Level Estimated
Thu 04:12:00 PM 26.1524 -81.7756 130° Southeast  Level Estimated
Thu 04:13:00 PM 26.1524 -81.7756 130° Southeast  Level Estimated
Thu 04:14:00 PM 26.1524 -81.7756 130° Southeast  Level Estimated
Thu 04:15:00 PM 26.1524 -81.7756 130° Southeast  Level Estimated
Thu 04:16:00 PM 26.1524 -81.7756 130° Southeast  Level Estimated
Thu 04:17:00 PM 26.1524 -81.7756 130° Southeast  Level Estimated
Thu 04:18:00 PM 26.1524 -81.7756 130° Southeast  Level Estimated
Thu 04:19:00 PM 26.1524 -81.7756 130° Southeast  Level Estimated
Thu 04:20:00 PM 26.1524 -81.7756 130° Southeast  Level Estimated

Login

Don't have an account? Register now (free) for customized features, flight alerts, and more!